createdAt,value
2019-03-20T00:00:12.941Z,11.47
2019-03-20T00:02:42.227Z,11.60
2019-03-20T00:05:11.635Z,12.27
2019-03-20T00:07:41.057Z,11.83
2019-03-20T00:10:12.828Z,12.80
2019-03-20T00:12:42.426Z,13.07
2019-03-20T00:15:12.409Z,12.60
2019-03-20T00:17:41.997Z,11.93
2019-03-20T00:20:12.071Z,13.07
2019-03-20T00:22:43.166Z,12.20
2019-03-20T00:25:13.399Z,11.07
2019-03-20T00:27:43.001Z,11.03
2019-03-20T00:30:13.024Z,11.70
2019-03-20T00:32:42.587Z,11.13
2019-03-20T00:35:12.053Z,12.63
2019-03-20T00:37:41.534Z,12.90
2019-03-20T00:40:12.074Z,12.57
2019-03-20T00:42:41.382Z,12.40
2019-03-20T00:45:12.195Z,12.63
2019-03-20T00:47:41.514Z,13.13
2019-03-20T00:50:13.286Z,13.20
2019-03-20T00:52:42.513Z,11.80
2019-03-20T00:55:12.285Z,13.03
2019-03-20T00:57:41.547Z,13.73
2019-03-20T01:00:16.518Z,12.57
2019-03-20T01:02:45.962Z,11.87
2019-03-20T01:05:16.308Z,12.83
2019-03-20T01:07:46.333Z,14.20
2019-03-20T01:10:17.747Z,13.23
2019-03-20T01:12:47.078Z,12.70
2019-03-20T01:15:16.878Z,13.77
2019-03-20T01:17:46.237Z,13.37
2019-03-20T01:20:17.274Z,12.93
2019-03-20T01:22:46.766Z,14.23
2019-03-20T01:25:17.129Z,13.87
2019-03-20T01:27:46.468Z,13.47
2019-03-20T01:30:36.181Z,14.47
2019-03-20T01:33:07.841Z,13.13
2019-03-20T01:35:37.205Z,14.33
2019-03-20T01:38:06.951Z,14.40
2019-03-20T01:40:36.263Z,14.40
2019-03-20T01:43:06.178Z,15.23
2019-03-20T01:45:35.777Z,14.47
2019-03-20T01:48:05.751Z,14.87
2019-03-20T01:50:35.133Z,14.13
2019-03-20T01:53:05.065Z,15.57
2019-03-20T01:55:34.390Z,15.87
2019-03-20T01:58:03.858Z,15.37
2019-03-20T02:00:33.522Z,15.77
2019-03-20T02:03:02.798Z,15.87
2019-03-20T02:05:36.099Z,14.27
2019-03-20T02:08:03.489Z,15.53
2019-03-20T02:10:32.721Z,15.33
2019-03-20T02:13:01.962Z,15.50
2019-03-20T02:15:38.951Z,17.13
2019-03-20T02:18:21.257Z,16.23
2019-03-20T02:20:51.214Z,16.97
2019-03-20T02:23:39.569Z,15.50
2019-03-20T02:26:09.037Z,15.23
2019-03-20T02:28:38.341Z,15.97
2019-03-20T02:31:07.602Z,14.80
2019-03-20T02:33:36.857Z,15.80
2019-03-20T02:36:06.204Z,13.50
2019-03-20T02:38:35.498Z,15.67
2019-03-20T02:41:04.802Z,16.00
2019-03-20T02:43:34.165Z,15.73
2019-03-20T02:46:03.620Z,15.30
2019-03-20T02:48:32.954Z,17.10
2019-03-20T02:51:02.362Z,15.80
2019-03-20T02:53:31.711Z,14.87
2019-03-20T02:56:00.984Z,15.90
2019-03-20T02:58:30.521Z,15.13
2019-03-20T03:00:59.787Z,16.17
2019-03-20T03:03:29.067Z,15.03
2019-03-20T03:06:06.751Z,14.70
2019-03-20T03:08:29.420Z,14.57
2019-03-20T03:11:01.838Z,14.70
2019-03-20T03:13:31.412Z,14.40
2019-03-20T03:16:00.774Z,13.97
2019-03-20T03:18:30.039Z,14.67
2019-03-20T03:20:59.353Z,14.73
2019-03-20T03:23:28.740Z,13.27
2019-03-20T03:25:58.317Z,15.73
2019-03-20T03:28:27.699Z,14.80
2019-03-20T03:30:56.945Z,14.20
2019-03-20T03:33:26.767Z,13.77
2019-03-20T03:35:56.368Z,12.70
2019-03-20T03:38:25.666Z,13.73
2019-03-20T03:40:55.001Z,13.93
2019-03-20T03:43:24.735Z,13.67
2019-03-20T03:45:54.322Z,13.37
2019-03-20T03:48:23.589Z,13.43
2019-03-20T03:50:52.963Z,12.97
2019-03-20T03:53:22.452Z,12.70
2019-03-20T03:55:51.725Z,12.73
2019-03-20T03:58:21.066Z,14.03
2019-03-20T04:00:50.563Z,12.00
2019-03-20T04:03:22.140Z,12.47
2019-03-20T04:05:51.519Z,11.90
2019-03-20T04:08:20.811Z,13.63
2019-03-20T04:10:50.323Z,12.47
2019-03-20T04:13:20.865Z,12.97
2019-03-20T04:15:50.352Z,11.73
2019-03-20T04:18:19.703Z,10.97
2019-03-20T04:20:48.962Z,11.80
2019-03-20T04:23:18.228Z,11.80
2019-03-20T04:25:47.514Z,11.93
2019-03-20T04:28:16.814Z,12.23
2019-03-20T04:30:46.129Z,10.93
2019-03-20T04:33:15.414Z,11.40
2019-03-20T04:35:44.747Z,11.83
2019-03-20T04:38:14.078Z,11.47
2019-03-20T04:40:43.420Z,11.63
2019-03-20T04:43:12.725Z,11.50
2019-03-20T04:45:41.969Z,12.20
2019-03-20T04:48:11.233Z,12.00
2019-03-20T04:50:40.533Z,11.10
2019-03-20T04:53:09.775Z,10.90
2019-03-20T04:55:39.112Z,11.80
2019-03-20T04:58:08.366Z,11.50
2019-03-20T05:00:37.712Z,10.93
2019-03-20T05:03:08.478Z,12.57
2019-03-20T05:05:37.845Z,11.20
2019-03-20T05:08:07.106Z,11.43
2019-03-20T05:10:36.411Z,11.10
2019-03-20T05:13:05.705Z,11.10
2019-03-20T05:15:34.961Z,10.73
2019-03-20T05:18:04.241Z,11.40
2019-03-20T05:20:33.487Z,10.27
2019-03-20T05:23:02.762Z,11.50
2019-03-20T05:25:32.081Z,11.77
2019-03-20T05:28:01.377Z,10.57
2019-03-20T05:30:30.655Z,11.33
2019-03-20T05:32:59.999Z,12.73
2019-03-20T05:35:48.350Z,11.43
2019-03-20T05:38:17.794Z,12.23
2019-03-20T05:40:47.114Z,11.70
2019-03-20T05:43:16.323Z,12.47
2019-03-20T05:45:45.647Z,12.60
2019-03-20T05:48:15.054Z,12.40
2019-03-20T05:50:44.367Z,13.00
2019-03-20T05:53:13.710Z,11.80
2019-03-20T05:55:42.961Z,12.83
2019-03-20T05:58:12.237Z,12.23
2019-03-20T06:00:41.607Z,13.27
2019-03-20T06:03:10.954Z,12.17
2019-03-20T06:05:40.266Z,13.63
2019-03-20T06:08:10.173Z,12.77
2019-03-20T06:10:39.801Z,12.67
2019-03-20T06:13:09.091Z,13.43
2019-03-20T06:15:38.727Z,13.30
2019-03-20T06:18:08.095Z,13.50
2019-03-20T06:20:37.445Z,13.50
2019-03-20T06:23:06.759Z,14.47
2019-03-20T06:25:36.148Z,11.93
2019-03-20T06:28:05.511Z,12.77
2019-03-20T06:30:35.083Z,14.47
2019-03-20T06:33:04.854Z,13.63
2019-03-20T06:35:34.113Z,12.73
2019-03-20T06:38:03.443Z,14.13
2019-03-20T06:40:32.878Z,14.13
2019-03-20T06:43:02.493Z,13.53
2019-03-20T06:45:31.819Z,14.87
2019-03-20T06:48:01.175Z,14.73
2019-03-20T06:50:30.369Z,9.03
2019-03-20T06:52:59.771Z,13.50
2019-03-20T06:55:29.041Z,14.13
2019-03-20T06:57:58.339Z,11.53
2019-03-20T07:00:59.435Z,12.77
2019-03-20T07:03:41.532Z,11.60
2019-03-20T07:06:27.796Z,13.40
2019-03-20T07:09:07.678Z,10.70
2019-03-20T07:11:40.382Z,12.87
2019-03-20T07:14:09.841Z,9.50
2019-03-20T07:16:39.112Z,12.60
2019-03-20T07:19:08.821Z,13.03
2019-03-20T07:21:38.072Z,13.33
2019-03-20T07:24:07.308Z,12.97
2019-03-20T07:26:36.610Z,12.23
2019-03-20T07:29:05.976Z,10.57
2019-03-20T07:31:35.245Z,12.30
2019-03-20T07:34:04.619Z,7.60
2019-03-20T07:36:34.177Z,9.27
2019-03-20T07:39:04.772Z,11.73
2019-03-20T07:41:34.131Z,12.07
2019-03-20T07:44:03.753Z,12.37
2019-03-20T07:46:33.658Z,11.80
2019-03-20T07:49:03.235Z,12.27
2019-03-20T07:51:33.455Z,12.03
2019-03-20T07:54:02.719Z,12.50
2019-03-20T07:56:32.026Z,12.00
2019-03-20T07:59:01.361Z,11.70
2019-03-20T08:01:30.770Z,9.03
2019-03-20T08:04:00.053Z,11.67
2019-03-20T08:06:29.300Z,11.27
2019-03-20T08:08:58.561Z,12.67
2019-03-20T08:11:27.877Z,12.43
2019-03-20T08:13:57.198Z,13.07
2019-03-20T08:16:26.462Z,12.93
2019-03-20T08:18:55.749Z,12.10
2019-03-20T08:21:25.036Z,9.90
2019-03-20T08:23:54.376Z,12.30
2019-03-20T08:26:23.755Z,12.47
2019-03-20T08:28:53.011Z,12.37
2019-03-20T08:31:22.361Z,12.87
2019-03-20T08:33:53.314Z,11.80
2019-03-20T08:36:22.595Z,8.60
2019-03-20T08:38:51.959Z,11.20
2019-03-20T08:41:24.644Z,7.83
2019-03-20T08:43:53.986Z,11.83
2019-03-20T08:46:23.257Z,12.00
2019-03-20T08:48:52.553Z,11.60
2019-03-20T08:51:21.898Z,12.07
2019-03-20T08:53:51.159Z,9.30
2019-03-20T08:56:20.503Z,11.97
2019-03-20T08:58:49.963Z,12.43
2019-03-20T09:01:28.137Z,12.30
2019-03-20T09:03:50.215Z,8.93
2019-03-20T09:06:19.791Z,11.63
2019-03-20T09:08:49.049Z,12.57
2019-03-20T09:11:18.402Z,13.00
2019-03-20T09:13:47.688Z,12.40
2019-03-20T09:16:16.949Z,10.27
2019-03-20T09:18:46.218Z,10.23
2019-03-20T09:21:15.523Z,10.10
2019-03-20T09:23:44.811Z,13.33
2019-03-20T09:26:14.219Z,15.13
2019-03-20T09:28:43.926Z,7.73
2019-03-20T09:31:13.238Z,15.53
2019-03-20T09:33:42.589Z,15.17
2019-03-20T09:36:12.334Z,14.67
2019-03-20T09:38:43.730Z,9.80
2019-03-20T09:41:13.019Z,11.03
2019-03-20T09:43:42.377Z,7.97
2019-03-20T09:46:11.829Z,10.67
2019-03-20T09:48:41.103Z,8.63
2019-03-20T09:51:10.374Z,7.87
2019-03-20T09:53:39.657Z,7.13
2019-03-20T09:56:08.895Z,9.57
2019-03-20T09:58:38.226Z,7.67
2019-03-20T10:01:07.838Z,12.00
2019-03-20T10:03:37.178Z,8.83
2019-03-20T10:06:06.750Z,9.47
2019-03-20T10:08:36.053Z,11.10
2019-03-20T10:11:07.439Z,8.73
2019-03-20T10:13:36.706Z,8.23
2019-03-20T10:16:06.684Z,10.50
2019-03-20T10:18:36.209Z,11.63
2019-03-20T10:21:05.507Z,9.53
2019-03-20T10:23:34.789Z,11.50
2019-03-20T10:26:04.158Z,8.10
2019-03-20T10:28:33.471Z,10.87
2019-03-20T10:31:02.791Z,11.80
2019-03-20T10:33:32.143Z,7.97
2019-03-20T10:36:01.428Z,7.33
2019-03-20T10:38:30.863Z,7.70
2019-03-20T10:41:00.505Z,7.27
2019-03-20T10:43:29.782Z,8.77
2019-03-20T10:45:59.165Z,11.90
2019-03-20T10:48:28.598Z,9.20
2019-03-20T10:50:57.890Z,6.63
2019-03-20T10:53:27.152Z,9.10
2019-03-20T10:55:56.455Z,10.80
2019-03-20T10:58:25.701Z,9.10
2019-03-20T11:00:54.955Z,11.73
2019-03-20T11:03:24.223Z,8.10
2019-03-20T11:05:53.460Z,9.23
2019-03-20T11:08:22.716Z,9.00
2019-03-20T11:10:52.080Z,7.97
2019-03-20T11:13:21.352Z,6.80
2019-03-20T11:15:50.642Z,6.80
2019-03-20T11:18:19.948Z,8.57
2019-03-20T11:20:49.207Z,9.40
2019-03-20T11:23:18.529Z,8.93
2019-03-20T11:25:47.902Z,10.83
2019-03-20T11:28:17.169Z,10.07
2019-03-20T11:30:46.445Z,9.80
2019-03-20T11:33:15.714Z,9.77
2019-03-20T11:35:44.994Z,11.20
2019-03-20T11:38:14.258Z,10.63
2019-03-20T11:40:43.581Z,11.30
2019-03-20T11:43:12.844Z,11.00
2019-03-20T11:45:42.310Z,11.07
2019-03-20T11:48:11.690Z,10.50
2019-03-20T11:50:40.988Z,12.43
2019-03-20T11:53:10.595Z,9.20
2019-03-20T11:55:40.199Z,8.00
2019-03-20T11:58:09.378Z,6.87
2019-03-20T12:00:38.730Z,8.77
2019-03-20T12:03:08.142Z,9.60
2019-03-20T12:05:37.451Z,10.00
2019-03-20T12:08:06.738Z,9.33
2019-03-20T12:10:36.026Z,12.47
2019-03-20T12:13:05.878Z,11.67
2019-03-20T12:15:35.137Z,8.63
2019-03-20T12:18:04.707Z,12.63
2019-03-20T12:20:34.023Z,10.30
2019-03-20T12:23:03.415Z,8.07
2019-03-20T12:25:32.691Z,9.30
2019-03-20T12:28:02.015Z,9.07
2019-03-20T12:30:31.634Z,11.63
2019-03-20T12:33:00.974Z,11.43
2019-03-20T12:35:31.110Z,10.13
2019-03-20T12:38:00.378Z,11.90
2019-03-20T12:40:30.475Z,9.20
2019-03-20T12:43:00.480Z,10.47
2019-03-20T12:45:31.481Z,8.40
2019-03-20T12:48:00.785Z,10.20
2019-03-20T12:50:30.271Z,9.70
2019-03-20T12:53:01.761Z,7.93
2019-03-20T12:55:31.233Z,9.50
2019-03-20T12:58:00.866Z,8.00
2019-03-20T13:00:30.516Z,10.03
2019-03-20T13:02:59.776Z,11.27
2019-03-20T13:05:29.157Z,10.20
2019-03-20T13:08:05.443Z,10.00
2019-03-20T13:10:29.443Z,10.53
2019-03-20T13:12:59.255Z,10.20
2019-03-20T13:15:28.864Z,8.10
2019-03-20T13:17:58.658Z,9.10
2019-03-20T13:20:27.941Z,11.33
2019-03-20T13:23:09.036Z,10.57
2019-03-20T13:25:38.694Z,6.83
2019-03-20T13:28:08.213Z,9.47
2019-03-20T13:30:40.914Z,10.13
2019-03-20T13:33:10.299Z,9.90
2019-03-20T13:35:39.557Z,9.70
2019-03-20T13:38:08.934Z,9.73
2019-03-20T13:40:38.229Z,8.17
2019-03-20T13:43:07.530Z,10.07
2019-03-20T13:45:37.305Z,9.90
2019-03-20T13:48:06.569Z,10.60
2019-03-20T13:50:36.217Z,11.37
2019-03-20T13:53:05.615Z,10.00
2019-03-20T13:55:34.874Z,10.73
2019-03-20T13:58:04.361Z,9.57
2019-03-20T14:00:33.635Z,9.70
2019-03-20T14:03:02.917Z,10.77
2019-03-20T14:05:32.178Z,10.03
2019-03-20T14:08:01.479Z,10.03
2019-03-20T14:10:30.789Z,8.03
2019-03-20T14:13:00.154Z,9.17
2019-03-20T14:15:30.450Z,8.83
2019-03-20T14:18:00.682Z,11.43
2019-03-20T14:20:29.979Z,8.90
2019-03-20T14:22:59.311Z,8.93
2019-03-20T14:25:28.636Z,8.50
2019-03-20T14:27:57.909Z,9.23
2019-03-20T14:30:27.200Z,10.57
2019-03-20T14:32:56.803Z,9.23
2019-03-20T14:35:26.054Z,11.87
2019-03-20T14:37:55.343Z,10.20
2019-03-20T14:40:35.266Z,10.00
2019-03-20T14:42:57.504Z,10.90
2019-03-20T14:45:26.897Z,11.10
2019-03-20T14:47:56.174Z,12.93
2019-03-20T14:50:25.985Z,12.27
2019-03-20T14:52:55.278Z,11.37
2019-03-20T14:55:24.702Z,13.37
2019-03-20T14:57:54.040Z,11.80
2019-03-20T15:00:24.755Z,8.53
2019-03-20T15:02:54.182Z,11.17
2019-03-20T15:05:23.747Z,9.93
2019-03-20T15:07:53.397Z,13.20
2019-03-20T15:10:23.906Z,6.70
2019-03-20T15:12:54.480Z,12.73
2019-03-20T15:15:33.563Z,10.33
2019-03-20T15:18:03.111Z,12.13
2019-03-20T15:20:32.441Z,11.90
2019-03-20T15:23:01.726Z,13.13
2019-03-20T15:25:31.049Z,10.07
2019-03-20T15:28:00.413Z,11.37
2019-03-20T15:30:29.935Z,12.17
2019-03-20T15:32:59.321Z,8.90
2019-03-20T15:35:28.690Z,13.40
2019-03-20T15:37:58.017Z,13.47
2019-03-20T15:40:27.300Z,9.93
2019-03-20T15:42:56.600Z,10.30
2019-03-20T15:45:25.862Z,9.77
2019-03-20T15:47:55.330Z,9.23
2019-03-20T15:50:24.706Z,12.57
2019-03-20T15:52:54.289Z,8.50
2019-03-20T15:55:28.698Z,11.63
2019-03-20T15:57:58.049Z,9.57
2019-03-20T16:00:27.413Z,10.27
2019-03-20T16:03:05.764Z,10.77
2019-03-20T16:05:35.170Z,9.37
2019-03-20T16:08:06.719Z,8.83
2019-03-20T16:10:36.118Z,7.87
2019-03-20T16:13:06.053Z,10.20
2019-03-20T16:15:35.456Z,10.00
2019-03-20T16:18:05.124Z,9.30
2019-03-20T16:20:34.386Z,9.87
2019-03-20T16:23:03.698Z,11.00
2019-03-20T16:25:32.960Z,9.57
2019-03-20T16:28:02.245Z,7.67
2019-03-20T16:30:31.605Z,8.60
2019-03-20T16:33:00.925Z,9.97
2019-03-20T16:35:30.183Z,8.67
2019-03-20T16:37:59.587Z,8.30
2019-03-20T16:40:28.894Z,9.93
2019-03-20T16:42:58.088Z,7.53
2019-03-20T16:45:29.019Z,12.17
2019-03-20T16:47:58.607Z,10.83
2019-03-20T16:50:28.053Z,11.73
2019-03-20T16:52:57.484Z,11.90
2019-03-20T16:55:26.869Z,11.33
2019-03-20T16:57:56.368Z,9.27
2019-03-20T17:00:27.195Z,12.27
2019-03-20T17:02:57.122Z,11.43
2019-03-20T17:05:26.757Z,10.47
2019-03-20T17:07:56.066Z,10.03
2019-03-20T17:10:31.223Z,9.80
2019-03-20T17:13:00.612Z,9.47
2019-03-20T17:15:30.689Z,10.47
2019-03-20T17:18:00.034Z,8.50
2019-03-20T17:20:29.456Z,8.83
2019-03-20T17:22:58.694Z,9.07
2019-03-20T17:25:28.503Z,8.77
2019-03-20T17:27:58.078Z,9.00
2019-03-20T17:30:32.317Z,8.77
2019-03-20T17:33:01.938Z,9.60
2019-03-20T17:35:31.234Z,9.67
2019-03-20T17:38:00.730Z,8.77
2019-03-20T17:40:30.624Z,8.77
2019-03-20T17:42:59.995Z,9.20
2019-03-20T17:45:29.953Z,9.03
2019-03-20T17:47:59.411Z,10.13
2019-03-20T17:50:29.282Z,10.80
2019-03-20T17:53:00.973Z,10.30
2019-03-20T17:55:30.734Z,10.03
2019-03-20T17:57:59.986Z,11.57
2019-03-20T18:00:41.168Z,10.77
2019-03-20T18:03:10.797Z,10.40
2019-03-20T18:05:40.387Z,9.90
2019-03-20T18:08:10.032Z,11.70
2019-03-20T18:10:39.561Z,10.83
2019-03-20T18:13:09.099Z,8.50
2019-03-20T18:15:38.667Z,10.53
2019-03-20T18:18:08.401Z,10.43
2019-03-20T18:20:38.912Z,9.93
2019-03-20T18:23:08.907Z,10.53
2019-03-20T18:25:38.345Z,11.23
2019-03-20T18:28:07.958Z,8.80
2019-03-20T18:30:39.161Z,10.70
2019-03-20T18:33:08.806Z,12.03
2019-03-20T18:35:38.634Z,10.03
2019-03-20T18:38:08.534Z,10.67
2019-03-20T18:40:38.050Z,10.37
2019-03-20T18:43:07.663Z,11.67
2019-03-20T18:45:37.365Z,11.93
2019-03-20T18:48:07.006Z,11.47
2019-03-20T18:50:36.341Z,11.27
2019-03-20T18:53:05.954Z,10.73
2019-03-20T18:55:35.678Z,12.67
2019-03-20T18:58:05.421Z,11.90
2019-03-20T19:00:34.765Z,12.20
2019-03-20T19:03:05.114Z,11.43
2019-03-20T19:05:37.353Z,12.23
2019-03-20T19:08:07.009Z,11.30
2019-03-20T19:10:36.554Z,13.13
2019-03-20T19:13:06.687Z,13.23
2019-03-20T19:15:36.411Z,13.43
2019-03-20T19:18:06.116Z,12.07
2019-03-20T19:20:35.489Z,8.53
2019-03-20T19:23:04.987Z,8.70
2019-03-20T19:25:34.169Z,13.37
2019-03-20T19:28:03.471Z,11.97
2019-03-20T19:30:32.973Z,11.13
2019-03-20T19:33:02.295Z,10.07
2019-03-20T19:35:31.557Z,10.73
2019-03-20T19:38:00.884Z,12.43
2019-03-20T19:40:30.192Z,12.43
2019-03-20T19:42:59.497Z,9.63
2019-03-20T19:45:28.818Z,14.07
2019-03-20T19:47:58.114Z,14.03
2019-03-20T19:50:27.542Z,13.83
2019-03-20T19:52:56.906Z,9.33
2019-03-20T19:55:26.211Z,8.00
2019-03-20T19:57:55.617Z,12.33
2019-03-20T20:00:25.129Z,10.80
2019-03-20T20:02:54.517Z,12.47
2019-03-20T20:05:24.001Z,12.37
2019-03-20T20:07:53.638Z,10.93
2019-03-20T20:10:23.033Z,13.00
2019-03-20T20:12:52.474Z,12.33
2019-03-20T20:15:22.908Z,11.83
2019-03-20T20:17:52.340Z,10.57
2019-03-20T20:20:22.087Z,10.90
2019-03-20T20:22:51.555Z,11.23
2019-03-20T20:25:22.723Z,9.80
2019-03-20T20:27:52.182Z,12.17
2019-03-20T20:30:22.047Z,11.77
2019-03-20T20:32:51.310Z,12.57
2019-03-20T20:35:20.840Z,13.07
2019-03-20T20:37:50.443Z,10.93
2019-03-20T20:40:19.924Z,12.60
2019-03-20T20:43:08.271Z,12.13
2019-03-20T20:45:37.658Z,11.57
2019-03-20T20:48:06.953Z,9.60
2019-03-20T20:50:36.374Z,9.63
2019-03-20T20:53:05.660Z,8.47
2019-03-20T20:55:34.974Z,8.77
2019-03-20T20:58:04.284Z,9.33
2019-03-20T21:00:33.614Z,9.40
2019-03-20T21:03:02.881Z,10.77
2019-03-20T21:05:32.386Z,8.90
2019-03-20T21:08:01.807Z,9.70
2019-03-20T21:10:31.798Z,11.30
2019-03-20T21:13:01.287Z,10.87
2019-03-20T21:15:51.124Z,9.73
2019-03-20T21:18:50.795Z,12.00
2019-03-20T21:21:21.451Z,11.30
2019-03-20T21:24:27.495Z,12.73
2019-03-20T21:27:44.461Z,12.67
2019-03-20T21:31:00.814Z,10.63
2019-03-20T21:34:01.967Z,12.73
2019-03-20T21:37:27.297Z,10.53
2019-03-20T21:39:59.339Z,10.63
2019-03-20T21:43:20.000Z,10.87
2019-03-20T21:46:21.447Z,10.57
2019-03-20T21:48:51.548Z,9.03
2019-03-20T21:51:21.801Z,11.73
2019-03-20T21:54:29.362Z,9.27
2019-03-20T21:57:20.857Z,9.70
2019-03-20T22:00:13.930Z,10.37
2019-03-20T22:02:44.773Z,12.40
2019-03-20T22:05:39.237Z,13.17
2019-03-20T22:08:09.113Z,13.53
2019-03-20T22:11:34.792Z,14.03
2019-03-20T22:14:08.562Z,12.63
2019-03-20T22:17:17.916Z,14.10
2019-03-20T22:20:18.727Z,14.47
2019-03-20T22:23:40.673Z,13.80
2019-03-20T22:26:38.434Z,13.33
2019-03-20T22:29:24.711Z,13.17
2019-03-20T22:32:37.531Z,12.80
2019-03-20T22:35:31.343Z,12.73
2019-03-20T22:38:02.458Z,12.20
2019-03-20T22:41:24.549Z,10.90
2019-03-20T22:43:58.618Z,10.40
2019-03-20T22:47:10.943Z,10.23
2019-03-20T22:50:30.084Z,10.03
2019-03-20T22:53:26.688Z,9.10
2019-03-20T22:56:27.697Z,9.83
2019-03-20T22:59:00.057Z,8.53
2019-03-20T23:01:56.983Z,9.20
2019-03-20T23:04:35.943Z,8.87
2019-03-20T23:07:07.009Z,9.43
2019-03-20T23:09:36.826Z,10.13
2019-03-20T23:12:10.046Z,9.57
2019-03-20T23:14:39.830Z,9.63
2019-03-20T23:17:09.787Z,9.97
2019-03-20T23:19:40.466Z,10.37
2019-03-20T23:22:11.046Z,10.40
2019-03-20T23:24:40.826Z,11.40
2019-03-20T23:27:15.014Z,11.20
2019-03-20T23:29:44.837Z,11.50
2019-03-20T23:32:14.637Z,10.47
2019-03-20T23:34:44.362Z,9.23
2019-03-20T23:37:14.180Z,12.67
2019-03-20T23:39:43.994Z,10.40
2019-03-20T23:42:13.808Z,12.53
2019-03-20T23:44:43.646Z,13.10
2019-03-20T23:47:13.555Z,13.30
2019-03-20T23:49:43.469Z,13.13
2019-03-20T23:52:13.251Z,13.77
2019-03-20T23:54:48.807Z,13.63
2019-03-20T23:57:19.257Z,13.50
2019-03-20T23:59:49.694Z,13.20
